Time;durP1;ratioP1;P1;durP2;ratioP2;P2;SDS_P1;SDS_P2;PMS_P1;PMS_P2;Temp;Humidity;BMP_temperature;BMP_pressure;BME280_temperature;BME280_humidity;BME280_pressure;Samples;Min_cycle;Max_cycle;Signal;HPM_P1;HPM_P2
2023/07/10 00:01:47;;;;;;;3.78;3.38;;;;;;;17.04;62.90;99045.97;5072464;28;20044;-51
2023/07/10 00:04:17;;;;;;;4.88;3.70;;;;;;;17.04;63.06;99045.97;5086240;28;20067;-57
2023/07/10 00:06:44;;;;;;;3.80;3.40;;;;;;;16.99;63.26;99056.50;5091175;28;20138;-53
2023/07/10 00:09:09;;;;;;;4.50;3.33;;;;;;;16.99;63.16;99051.09;5091921;28;20041;-53
2023/07/10 00:11:35;;;;;;;3.70;3.40;;;;;;;16.57;63.36;98984.91;5090929;28;20521;-55
2023/07/10 00:14:01;;;;;;;3.35;3.05;;;;;;;16.92;63.56;99048.25;5092247;28;20136;-57
2023/07/10 00:16:28;;;;;;;5.93;2.97;;;;;;;16.79;63.62;99023.72;5091974;28;20111;-53
2023/07/10 00:18:53;;;;;;;3.67;3.38;;;;;;;16.93;63.49;99043.69;5092328;28;20391;-55
2023/07/10 00:21:19;;;;;;;5.03;2.95;;;;;;;16.89;63.91;99037.81;5092500;28;20127;-61
2023/07/10 00:23:46;;;;;;;5.30;3.45;;;;;;;16.89;63.76;99045.09;5089445;28;20103;-59
2023/07/10 00:26:21;;;;;;;3.75;3.13;;;;;;;16.85;64.00;99043.75;5092111;28;20032;-56
2023/07/10 00:28:48;;;;;;;;;;;;;;;17.15;62.48;99049.25;5092509;28;20428;-56
2023/07/10 00:31:14;;;;;;;4.65;3.22;;;;;;;16.88;63.69;99037.97;5092185;28;20220;-59
2023/07/10 00:33:39;;;;;;;5.32;2.83;;;;;;;16.79;63.94;99035.38;5090929;28;20081;-56
2023/07/10 00:36:33;;;;;;;4.78;3.40;;;;;;;16.85;64.32;99044.59;5091949;28;20123;-55
2023/07/10 00:39:37;;;;;;;5.00;3.45;;;;;;;16.88;64.22;99049.63;5085251;28;20407;-54
2023/07/10 00:42:09;;;;;;;4.97;2.72;;;;;;;16.81;64.36;99047.84;5074833;28;20029;-56
2023/07/10 00:44:43;;;;;;;5.10;3.03;;;;;;;16.73;64.82;99051.47;5082644;28;20032;-57
2023/07/10 00:47:20;;;;;;;3.97;3.03;;;;;;;16.74;64.75;99050.44;5095034;28;20028;-56
2023/07/10 00:50:05;;;;;;;5.80;2.83;;;;;;;16.73;64.61;99049.63;5096179;28;20363;-57
2023/07/10 00:52:38;;;;;;;3.40;2.90;;;;;;;16.64;65.10;99050.72;5092913;28;20031;-56
2023/07/10 00:55:25;;;;;;;4.70;3.08;;;;;;;16.67;65.05;99044.94;5093566;28;20032;-58
2023/07/10 00:58:15;;;;;;;3.60;2.42;;;;;;;16.60;65.14;99049.38;5095989;28;20050;-63
2023/07/10 01:00:58;;;;;;;3.65;2.70;;;;;;;16.58;65.34;99041.47;5095863;28;20047;-57
2023/07/10 01:03:24;;;;;;;3.88;2.35;;;;;;;16.45;65.69;99043.94;5095301;28;20098;-55
2023/07/10 01:05:50;;;;;;;3.60;2.88;;;;;;;16.42;65.81;99037.06;5093775;28;20028;-58
2023/07/10 01:08:15;;;;;;;3.28;2.97;;;;;;;16.39;65.80;99045.50;5076253;28;20115;-57
2023/07/10 01:10:41;;;;;;;5.28;2.70;;;;;;;16.36;65.75;99043.16;5089889;28;20383;-59
2023/07/10 01:13:06;;;;;;;4.18;2.80;;;;;;;16.35;65.96;99045.03;5094378;28;20027;-56
2023/07/10 01:15:32;;;;;;;4.28;2.53;;;;;;;16.33;66.14;99046.22;5095076;28;20124;-55
2023/07/10 01:17:58;;;;;;;4.38;2.97;;;;;;;16.29;66.43;99040.38;5095527;28;20028;-53
2023/07/10 01:20:45;;;;;;;3.28;2.92;;;;;;;16.40;66.08;99049.06;5095293;28;20055;-56
2023/07/10 01:23:10;;;;;;;4.75;2.78;;;;;;;16.24;66.13;99033.81;5094918;28;20102;-56
2023/07/10 01:25:43;;;;;;;3.55;2.55;;;;;;;16.31;66.20;99048.28;5079261;28;20054;-58
2023/07/10 01:28:14;;;;;;;3.45;2.42;;;;;;;16.27;66.38;99052.34;5074365;28;20028;-57
2023/07/10 01:30:43;;;;;;;2.53;2.33;;;;;;;16.23;66.37;99053.75;5074762;28;20028;-57
2023/07/10 01:33:33;;;;;;;3.80;2.10;;;;;;;16.33;66.53;99051.63;5074481;28;20456;-53
2023/07/10 01:36:00;;;;;;;2.70;2.50;;;;;;;16.23;66.32;99059.16;5073506;28;20459;-58
2023/07/10 01:38:38;;;;;;;6.80;2.40;;;;;;;16.28;66.43;99064.84;5074614;28;20443;-59
2023/07/10 01:41:17;;;;;;;6.55;2.78;;;;;;;16.25;66.77;99055.22;5082302;28;20040;-58
2023/07/10 01:43:42;;;;;;;4.45;2.65;;;;;;;16.18;66.69;99049.72;5089828;28;20028;-55
2023/07/10 01:46:34;;;;;;;2.58;2.35;;;;;;;16.33;66.37;99057.88;5094019;28;20051;-55
2023/07/10 01:49:00;;;;;;;4.72;2.60;;;;;;;16.20;66.36;99053.09;5089966;28;20071;-55
2023/07/10 01:51:26;;;;;;;3.15;2.30;;;;;;;16.20;66.34;99050.38;5094501;28;20040;-57
2023/07/10 01:53:52;;;;;;;4.00;2.35;;;;;;;16.18;66.91;99054.28;5093678;28;20030;-58
2023/07/10 01:56:20;;;;;;;3.72;2.50;;;;;;;16.17;66.57;99058.84;5092292;28;20054;-58
2023/07/10 01:58:46;;;;;;;2.30;2.10;;;;;;;16.16;66.70;99057.16;5092058;28;20454;-55
2023/07/10 02:01:11;;;;;;;6.10;2.08;;;;;;;16.15;66.71;99060.88;5092479;28;20052;-58
2023/07/10 02:03:37;;;;;;;3.08;1.63;;;;;;;16.17;66.65;99058.84;5091565;28;20106;-57
2023/07/10 02:06:03;;;;;;;4.07;2.03;;;;;;;16.20;66.27;99072.00;5094640;28;20410;-55
2023/07/10 02:08:30;;;;;;;3.25;2.00;;;;;;;16.20;66.59;99069.28;5094418;28;20078;-53
2023/07/10 02:10:55;;;;;;;3.40;1.98;;;;;;;16.19;66.68;99067.63;5093892;28;20052;-60
2023/07/10 02:13:21;;;;;;;3.45;1.90;;;;;;;16.24;66.16;99063.53;5094445;28;20034;-54
2023/07/10 02:15:47;;;;;;;5.10;2.03;;;;;;;16.25;66.32;99070.59;5094404;28;20352;-58
2023/07/10 02:18:12;;;;;;;3.60;2.10;;;;;;;16.25;66.14;99066.03;5090491;28;20020;-57
2023/07/10 02:20:39;;;;;;;3.30;1.85;;;;;;;16.39;65.81;99082.50;5091723;28;20032;-56
2023/07/10 02:23:04;;;;;;;5.00;1.63;;;;;;;16.55;65.29;99073.41;5093213;28;20028;-55
2023/07/10 02:25:30;;;;;;;3.78;1.77;;;;;;;16.75;64.59;99085.41;5094148;28;20459;-53
2023/07/10 02:27:56;;;;;;;3.63;1.88;;;;;;;16.74;64.22;99050.44;5093869;28;20380;-69
2023/07/10 02:30:22;;;;;;;4.80;1.90;;;;;;;17.08;63.75;99078.88;5093548;28;20173;-54
2023/07/10 02:32:47;;;;;;;3.33;1.55;;;;;;;17.21;63.23;99079.06;5092988;28;20039;-56
2023/07/10 02:35:13;;;;;;;1.83;1.48;;;;;;;17.33;62.53;99076.75;5084684;28;20028;-58
2023/07/10 02:37:38;;;;;;;2.70;1.40;;;;;;;17.24;62.16;99053.53;5073447;28;20033;-55
2023/07/10 02:40:05;;;;;;;3.38;1.60;;;;;;;17.64;61.24;99075.72;5083530;28;20024;-56
2023/07/10 02:42:30;;;;;;;3.08;1.45;;;;;;;17.76;60.92;99069.81;5092827;28;20035;-56
2023/07/10 02:44:56;;;;;;;6.07;1.48;;;;;;;17.96;60.45;99083.56;5093123;28;20028;-67
2023/07/10 02:47:22;;;;;;;3.15;1.63;;;;;;;17.96;60.02;99069.22;5093653;28;20035;-59
2023/07/10 02:49:47;;;;;;;2.00;1.48;;;;;;;17.85;60.14;99070.53;5092283;28;20031;-57
2023/07/10 02:52:13;;;;;;;1.70;1.60;;;;;;;17.83;60.43;99078.84;5093287;28;20069;-59
2023/07/10 02:54:38;;;;;;;2.80;1.50;;;;;;;17.76;60.58;99069.81;5091827;28;20402;-58
2023/07/10 02:57:04;;;;;;;3.85;1.20;;;;;;;17.71;60.55;99067.66;5093405;28;20067;-57
2023/07/10 02:59:29;;;;;;;3.78;1.30;;;;;;;17.76;60.33;99067.09;5092684;28;20024;-56
2023/07/10 03:01:55;;;;;;;4.45;1.38;;;;;;;17.89;60.27;99082.66;5091687;28;20049;-56
2023/07/10 03:04:21;;;;;;;3.20;1.65;;;;;;;17.91;59.98;99081.47;5092531;28;20028;-58
2023/07/10 03:06:51;;;;;;;4.60;1.20;;;;;;;17.92;59.99;99082.28;5093195;28;20048;-56
2023/07/10 03:09:16;;;;;;;2.53;1.60;;;;;;;18.13;59.44;99078.81;5092686;28;20034;-56
2023/07/10 03:11:42;;;;;;;5.22;1.40;;;;;;;18.58;58.33;99080.53;5092922;28;20103;-57
2023/07/10 03:14:07;;;;;;;2.65;1.33;;;;;;;18.92;57.20;99076.22;5093444;28;20410;-58
2023/07/10 03:16:33;;;;;;;2.97;1.30;;;;;;;19.27;55.97;99070.00;5078101;28;20028;-56
2023/07/10 03:18:58;;;;;;;2.65;1.60;;;;;;;19.75;54.70;99063.75;5072601;28;20032;-68
2023/07/10 03:21:25;;;;;;;2.58;1.27;;;;;;;20.22;53.40;99067.50;5073697;28;20028;-57
2023/07/10 03:23:51;;;;;;;3.85;1.50;;;;;;;20.43;51.80;99041.19;5072360;28;20036;-56
2023/07/10 03:26:17;;;;;;;2.67;1.40;;;;;;;21.19;50.57;99073.63;5072626;28;20492;-55
2023/07/10 03:28:42;;;;;;;2.88;1.58;;;;;;;21.58;49.54;99071.00;5072284;28;20150;-52
2023/07/10 03:31:08;;;;;;;2.85;1.48;;;;;;;21.87;48.82;99069.66;5071347;28;20060;-56
2023/07/10 03:33:34;;;;;;;2.08;1.40;;;;;;;22.29;47.36;99076.59;5072447;28;20028;-58
2023/07/10 03:36:02;;;;;;;3.80;1.77;;;;;;;22.40;46.67;99067.69;5072101;28;20043;-68
2023/07/10 03:38:28;;;;;;;3.22;1.42;;;;;;;22.75;46.23;99069.16;5091100;28;20042;-57
2023/07/10 03:40:56;;;;;;;5.38;1.20;;;;;;;23.08;45.27;99068.84;5092466;28;20020;-60
2023/07/10 03:43:22;;;;;;;6.47;1.30;;;;;;;23.49;44.04;99069.28;5090748;28;20032;-58
2023/07/10 03:45:48;;;;;;;5.30;1.50;;;;;;;23.48;43.19;99042.22;5092407;28;20036;-60
2023/07/10 03:48:13;;;;;;;1.20;1.10;;;;;;;23.77;42.79;99065.19;5092379;28;20024;-55
2023/07/10 03:50:39;;;;;;;3.40;1.25;;;;;;;23.90;42.52;99072.41;5085907;28;20440;-62
2023/07/10 03:53:05;;;;;;;2.90;1.25;;;;;;;24.06;42.22;99072.84;5070753;28;20031;-62
2023/07/10 03:55:30;;;;;;;7.35;1.40;;;;;;;24.15;41.53;99076.94;5071040;28;20043;-67
2023/07/10 03:57:56;;;;;;;1.42;1.10;;;;;;;24.18;41.60;99092.03;5071974;28;20063;-60
2023/07/10 04:00:21;;;;;;;2.22;1.20;;;;;;;24.46;40.32;99046.81;5071838;28;20103;-63
2023/07/10 04:02:47;;;;;;;4.60;1.30;;;;;;;24.71;39.55;99079.47;5072213;28;20021;-60
2023/07/10 04:05:12;;;;;;;2.67;1.23;;;;;;;24.97;39.37;99080.13;5072610;28;20032;-62
2023/07/10 04:07:38;;;;;;;3.95;1.30;;;;;;;25.47;38.29;99078.84;5071253;28;20110;-60
2023/07/10 04:10:04;;;;;;;1.52;1.15;;;;;;;26.14;36.78;99079.34;5071741;28;20037;-61
2023/07/10 04:12:31;;;;;;;3.33;1.40;;;;;;;26.48;35.83;99049.25;5074389;28;20509;-65
2023/07/10 04:14:57;;;;;;;2.47;1.35;;;;;;;27.01;34.55;99079.25;5075807;28;20099;-59
2023/07/10 04:17:23;;;;;;;6.03;1.45;;;;;;;27.44;33.60;99052.09;5075451;28;20363;-60
2023/07/10 04:19:48;;;;;;;3.25;1.40;;;;;;;28.06;32.03;99052.03;5075816;28;20024;-58
2023/07/10 04:22:14;;;;;;;4.03;1.55;;;;;;;28.34;31.94;99074.91;5076716;28;20047;-59
2023/07/10 04:24:39;;;;;;;10.45;1.67;;;;;;;28.48;30.88;99070.66;5076306;28;20112;-61
2023/07/10 04:27:05;;;;;;;6.15;1.88;;;;;;;28.58;30.93;99080.94;5074282;28;20024;-60
2023/07/10 04:29:31;;;;;;;5.35;1.92;;;;;;;28.77;30.53;99067.59;5074856;28;20032;-61
2023/07/10 04:31:56;;;;;;;5.25;1.35;;;;;;;28.91;30.00;99067.16;5075271;28;20082;-61
2023/07/10 04:34:22;;;;;;;1.95;1.60;;;;;;;29.55;29.39;99070.91;5074224;28;20071;-63
2023/07/10 04:36:47;;;;;;;3.72;1.60;;;;;;;30.56;28.19;99066.22;5076314;28;20022;-63
2023/07/10 04:39:13;;;;;;;2.17;1.50;;;;;;;31.64;26.41;99057.81;5075536;28;20028;-60
2023/07/10 04:41:38;;;;;;;2.40;1.70;;;;;;;32.36;24.93;99061.34;5074270;28;20052;-60
2023/07/10 04:44:04;;;;;;;2.63;1.70;;;;;;;32.63;24.50;99060.03;5075914;28;20065;-60
2023/07/10 04:46:30;;;;;;;5.50;1.70;;;;;;;32.78;24.19;99073.75;5074904;28;20054;-59
2023/07/10 04:48:56;;;;;;;5.15;1.95;;;;;;;32.80;24.00;99073.47;5075318;28;20456;-60
2023/07/10 04:51:22;;;;;;;2.00;1.77;;;;;;;33.26;23.57;99068.63;5074936;28;20036;-60
2023/07/10 04:53:48;;;;;;;5.32;2.10;;;;;;;33.63;23.05;99070.72;5072133;28;20036;-60
2023/07/10 04:56:15;;;;;;;3.83;1.80;;;;;;;34.46;22.20;99079.88;5074460;28;20036;-62
2023/07/10 04:58:59;;;;;;;6.97;1.80;;;;;;;35.10;22.06;99093.34;5074905;28;20445;-61
2023/07/10 05:01:28;;;;;;;6.60;2.10;;;;;;;35.38;21.12;99067.50;5073734;28;20028;-61
2023/07/10 05:03:54;;;;;;;2.95;1.83;;;;;;;36.19;19.77;99088.41;5075198;28;20499;-61
2023/07/10 05:06:20;;;;;;;6.35;2.03;;;;;;;36.78;19.31;99084.81;5073775;28;20385;-60
2023/07/10 05:08:46;;;;;;;4.40;1.90;;;;;;;37.56;18.17;99088.38;5074874;28;20036;-60
2023/07/10 05:11:13;;;;;;;4.47;2.33;;;;;;;38.12;17.80;99088.69;5074357;28;20119;-61
2023/07/10 05:13:39;;;;;;;3.17;2.20;;;;;;;38.40;17.43;99093.97;5074429;28;20467;-60
2023/07/10 05:16:05;;;;;;;4.47;2.28;;;;;;;38.32;17.02;99097.56;5074598;28;20031;-67
2023/07/10 05:18:31;;;;;;;4.07;2.35;;;;;;;38.36;16.92;99092.97;5078939;28;20028;-61
2023/07/10 05:20:58;;;;;;;4.70;2.50;;;;;;;38.69;16.95;99095.28;5094991;28;20128;-60
2023/07/10 05:23:26;;;;;;;5.25;2.35;;;;;;;38.58;16.29;99083.59;5094594;28;20594;-60
2023/07/10 05:26:06;;;;;;;4.43;2.13;;;;;;;39.16;16.12;99076.94;5085607;28;20097;-60
2023/07/10 05:28:32;;;;;;;5.05;2.33;;;;;;;39.18;15.66;99094.22;5075730;28;20037;-60
2023/07/10 05:31:00;;;;;;;6.85;2.45;;;;;;;38.69;16.33;99098.06;5076387;28;20107;-61
2023/07/10 05:33:25;;;;;;;3.83;2.17;;;;;;;38.56;16.28;99097.09;5074531;28;20028;-60
2023/07/10 05:35:53;;;;;;;7.88;2.53;;;;;;;39.27;15.73;99108.19;5074486;28;20074;-61
2023/07/10 05:38:21;;;;;;;5.65;2.40;;;;;;;39.29;15.96;99101.06;5074119;28;20108;-60
2023/07/10 05:40:46;;;;;;;2.72;2.42;;;;;;;39.18;15.89;99085.81;5074523;28;20444;-61
2023/07/10 05:43:12;;;;;;;2.92;2.40;;;;;;;39.10;15.61;99083.88;5074407;28;20079;-60
2023/07/10 05:45:37;;;;;;;2.45;2.00;;;;;;;39.74;15.23;99098.91;5075062;28;20046;-61
2023/07/10 05:48:03;;;;;;;6.03;2.17;;;;;;;40.13;14.99;99104.47;5093633;28;20024;-60
2023/07/10 05:50:29;;;;;;;5.82;2.03;;;;;;;40.66;14.39;99107.69;5076662;28;20047;-62
2023/07/10 05:52:54;;;;;;;2.90;2.03;;;;;;;41.20;13.97;99100.41;5074836;28;20035;-60
2023/07/10 05:55:22;;;;;;;4.93;2.25;;;;;;;41.82;13.52;99122.97;5073083;28;20056;-61
2023/07/10 05:57:47;;;;;;;2.55;2.10;;;;;;;42.08;13.25;99106.88;5074426;28;20111;-59
2023/07/10 06:00:13;;;;;;;4.95;2.78;;;;;;;42.66;13.14;99105.81;5073146;28;20113;-62
2023/07/10 06:02:39;;;;;;;4.55;2.20;;;;;;;42.37;13.19;99119.03;5092752;28;20043;-60
2023/07/10 06:05:05;;;;;;;4.43;2.10;;;;;;;42.54;13.07;99123.56;5094611;28;20444;-59
2023/07/10 06:07:30;;;;;;;7.38;2.30;;;;;;;43.31;12.20;99113.25;5092411;28;20086;-60
2023/07/10 06:09:56;;;;;;;3.75;2.10;;;;;;;44.18;11.70;99109.69;5076117;28;20526;-59
2023/07/10 06:12:21;;;;;;;2.20;2.00;;;;;;;44.30;11.47;99111.53;5092232;28;20040;-61
2023/07/10 06:14:47;;;;;;;3.58;1.65;;;;;;;44.74;10.71;99087.88;5093342;28;20448;-61
2023/07/10 06:17:12;;;;;;;4.30;1.90;;;;;;;44.99;10.69;99116.59;5094169;28;20024;-60
2023/07/10 06:19:38;;;;;;;3.85;2.00;;;;;;;44.60;10.81;99108.16;5092926;28;20032;-67
2023/07/10 06:22:09;;;;;;;2.80;1.65;;;;;;;44.08;11.17;99121.53;5076159;28;20035;-59
2023/07/10 06:24:34;;;;;;;4.75;2.30;;;;;;;43.83;11.57;99113.31;5093874;28;20093;-60
2023/07/10 06:27:00;;;;;;;4.38;1.98;;;;;;;44.19;11.09;99119.78;5092932;28;20040;-65
2023/07/10 06:29:25;;;;;;;2.42;2.20;;;;;;;44.53;11.26;99127.78;5093282;28;20027;-60
2023/07/10 06:31:51;;;;;;;4.43;2.42;;;;;;;45.42;10.37;99125.03;5090666;28;20039;-60
2023/07/10 06:34:17;;;;;;;2.28;2.10;;;;;;;45.69;10.28;99122.25;5092339;28;20032;-60
2023/07/10 06:36:42;;;;;;;2.72;1.92;;;;;;;45.34;10.22;99122.47;5094008;28;20432;-61
2023/07/10 06:39:08;;;;;;;3.83;1.77;;;;;;;45.12;10.20;99122.88;5093763;28;20032;-61
2023/07/10 06:41:33;;;;;;;4.60;2.10;;;;;;;44.90;10.37;99124.47;5093438;28;20510;-59
2023/07/10 06:43:59;;;;;;;2.90;1.88;;;;;;;44.73;10.66;99122.91;5093953;28;20020;-61
2023/07/10 06:46:25;;;;;;;4.05;1.98;;;;;;;45.40;10.15;99107.66;5090768;28;20024;-61
2023/07/10 06:48:51;;;;;;;3.67;2.00;;;;;;;46.21;10.41;99135.16;5072979;28;20108;-63
2023/07/10 06:51:16;;;;;;;2.78;2.10;;;;;;;46.36;9.81;99108.69;5072755;28;20135;-62
2023/07/10 06:53:42;;;;;;;4.75;2.08;;;;;;;47.36;9.11;99118.72;5088555;28;20061;-62
2023/07/10 06:56:07;;;;;;;4.32;2.15;;;;;;;48.51;8.60;99122.75;5093947;28;20040;-60
2023/07/10 06:58:34;;;;;;;4.55;2.10;;;;;;;48.28;8.95;99124.63;5069048;28;20448;-65
2023/07/10 07:01:00;;;;;;;5.00;2.20;;;;;;;48.02;8.89;99119.19;5092031;28;20034;-65
2023/07/10 07:03:26;;;;;;;5.25;1.83;;;;;;;48.13;8.70;99115.22;5093202;28;20107;-68
2023/07/10 07:05:53;;;;;;;5.20;2.00;;;;;;;47.84;8.89;99098.03;5092966;28;20432;-65
2023/07/10 07:08:20;;;;;;;5.57;2.00;;;;;;;48.20;8.48;99122.97;5092160;28;20063;-65
2023/07/10 07:10:48;;;;;;;3.17;2.28;;;;;;;48.71;8.28;99124.00;5092798;28;20031;-65
2023/07/10 07:13:14;;;;;;;4.10;2.22;;;;;;;49.19;8.23;99099.38;5075172;28;20490;-65
2023/07/10 07:15:40;;;;;;;5.88;2.30;;;;;;;49.15;8.13;99098.56;5072749;28;20082;-66
2023/07/10 07:18:05;;;;;;;6.10;2.28;;;;;;;48.37;8.56;99112.13;5072430;28;20036;-65
2023/07/10 07:20:32;;;;;;;3.50;2.53;;;;;;;48.11;8.67;99117.66;5072388;28;20042;-65
2023/07/10 07:22:57;;;;;;;4.30;2.22;;;;;;;48.89;8.43;99117.56;5072832;28;20115;-66
2023/07/10 07:25:23;;;;;;;9.52;2.40;;;;;;;48.54;8.51;99127.63;5080170;28;20103;-65
2023/07/10 07:27:49;;;;;;;2.90;2.25;;;;;;;48.68;8.48;99119.13;5090522;28;20028;-66
2023/07/10 07:30:14;;;;;;;5.47;2.50;;;;;;;49.43;8.26;99119.66;5074344;28;20123;-67
2023/07/10 07:32:40;;;;;;;4.80;2.15;;;;;;;47.25;8.80;99114.94;5065502;28;20036;-67
2023/07/10 07:35:06;;;;;;;7.95;2.22;;;;;;;42.79;11.95;99121.44;5070596;28;20093;-66
2023/07/10 07:37:31;;;;;;;4.80;2.13;;;;;;;42.07;12.85;99124.94;5077098;28;20115;-67
2023/07/10 07:40:01;;;;;;;3.88;2.10;;;;;;;43.17;12.03;99116.47;5060243;28;20406;-67
2023/07/10 07:42:28;;;;;;;7.03;2.08;;;;;;;44.35;10.97;99125.34;5060449;28;20376;-63
2023/07/10 07:44:55;;;;;;;8.52;1.92;;;;;;;45.68;9.92;99129.09;5066956;28;20040;-61
2023/07/10 07:47:20;;;;;;;5.15;2.03;;;;;;;47.17;8.88;99128.22;5071061;28;20048;-59
2023/07/10 07:49:45;;;;;;;5.22;2.00;;;;;;;47.61;9.08;99126.59;5058495;28;20037;-60
2023/07/10 07:52:11;;;;;;;3.13;1.85;;;;;;;47.56;9.11;99122.13;5084667;28;20032;-61
2023/07/10 07:54:36;;;;;;;4.93;1.98;;;;;;;47.20;9.34;99118.94;5071027;28;20064;-60
2023/07/10 07:57:02;;;;;;;4.80;2.00;;;;;;;46.95;9.42;99124.38;5076141;28;20036;-61
2023/07/10 07:59:29;;;;;;;6.40;2.20;;;;;;;47.02;9.33;99127.28;5067267;28;20364;-61
2023/07/10 08:01:54;;;;;;;6.05;2.17;;;;;;;47.30;8.80;99123.13;5072619;28;20025;-66
2023/07/10 08:04:20;;;;;;;4.78;2.03;;;;;;;46.31;9.81;99128.84;5053703;28;20038;-61
2023/07/10 08:06:48;;;;;;;2.75;2.05;;;;;;;45.19;10.48;99129.84;5071676;28;20048;-60
2023/07/10 08:09:15;;;;;;;4.80;1.88;;;;;;;45.33;10.25;99126.50;5057186;28;20083;-62
2023/07/10 08:11:40;;;;;;;7.40;2.30;;;;;;;45.24;10.18;99085.16;5053511;28;20041;-61
2023/07/10 08:14:06;;;;;;;6.65;2.38;;;;;;;45.42;10.28;99119.38;5079808;28;20096;-61
2023/07/10 08:16:31;;;;;;;7.30;2.20;;;;;;;44.08;10.95;99130.00;5052856;28;20071;-61
2023/07/10 08:18:57;;;;;;;6.43;2.20;;;;;;;43.37;11.33;99113.75;5051944;28;20433;-61
2023/07/10 08:21:22;;;;;;;6.38;2.13;;;;;;;42.82;11.67;99125.53;5064098;28;20456;-63
2023/07/10 08:23:48;;;;;;;6.03;2.03;;;;;;;41.13;13.02;99131.03;5092044;28;20038;-61
2023/07/10 08:26:14;;;;;;;17.50;2.70;;;;;;;38.34;14.92;99112.03;5091031;28;20071;-69
2023/07/10 08:28:40;;;;;;;7.00;2.55;;;;;;;36.28;16.98;99102.41;5089186;28;20423;-60
2023/07/10 08:31:05;;;;;;;3.50;2.10;;;;;;;34.73;18.59;99095.88;5076176;28;20111;-62
2023/07/10 08:33:31;;;;;;;6.32;1.88;;;;;;;33.31;20.02;99135.97;5071649;28;20036;-61
2023/07/10 08:35:59;;;;;;;11.05;2.80;;;;;;;31.39;22.23;99143.63;5071193;28;20032;-61
2023/07/10 08:38:24;;;;;;;7.50;2.33;;;;;;;29.40;24.93;99109.38;5071401;28;20060;-57
2023/07/10 08:40:54;;;;;;;9.50;2.75;;;;;;;28.71;26.36;99139.41;5071834;28;20043;-63
2023/07/10 08:43:33;;;;;;;6.13;2.40;;;;;;;27.99;27.54;99143.03;5070623;28;20032;-61
2023/07/10 08:46:03;;;;;;;5.00;2.40;;;;;;;27.71;27.86;99146.78;5073042;28;20035;-62
2023/07/10 08:48:38;;;;;;;5.78;2.63;;;;;;;27.34;28.46;99151.75;5071682;28;20456;-61
2023/07/10 08:51:20;;;;;;;6.18;2.38;;;;;;;27.27;28.65;99155.72;5070724;28;20035;-62
2023/07/10 08:53:58;;;;;;;5.43;2.72;;;;;;;26.83;29.81;99148.13;5054593;28;20115;-65
2023/07/10 08:56:35;;;;;;;5.68;2.58;;;;;;;26.77;29.79;99161.78;5084309;28;20103;-61
2023/07/10 08:59:22;;;;;;;7.93;2.65;;;;;;;26.56;29.52;99160.56;5090751;28;20024;-64
2023/07/10 09:01:48;;;;;;;6.35;2.63;;;;;;;26.33;31.12;99114.84;5088654;28;20028;-61
2023/07/10 09:04:17;;;;;;;9.35;2.58;;;;;;;26.27;30.95;99121.28;5095512;28;20097;-60
2023/07/10 09:06:49;;;;;;;9.93;2.92;;;;;;;26.61;30.71;99154.34;5095150;28;20109;-61
2023/07/10 09:09:27;;;;;;;4.32;2.70;;;;;;;26.55;30.28;99158.88;5057365;28;20044;-66
2023/07/10 09:11:56;;;;;;;4.43;2.70;;;;;;;26.29;30.81;99158.41;5069101;28;20063;-61
2023/07/10 09:14:38;;;;;;;3.30;2.40;;;;;;;26.39;31.05;99162.41;5070204;28;20107;-61
2023/07/10 09:17:16;;;;;;;4.70;2.63;;;;;;;26.04;30.77;99153.19;5072893;28;20028;-61
2023/07/10 09:19:49;;;;;;;4.18;2.75;;;;;;;25.71;31.98;99146.47;5074195;28;20097;-60
2023/07/10 09:22:14;;;;;;;3.65;2.47;;;;;;;25.59;32.01;99150.06;5074903;28;20025;-61
2023/07/10 09:24:40;;;;;;;4.45;2.75;;;;;;;25.33;32.08;99149.47;5074795;28;20043;-60
2023/07/10 09:27:12;;;;;;;7.18;2.45;;;;;;;25.18;32.02;99127.97;5085596;28;20047;-60
2023/07/10 09:29:38;;;;;;;3.83;2.47;;;;;;;25.46;32.50;99155.75;5094364;28;20100;-59
2023/07/10 09:32:19;;;;;;;7.47;3.03;;;;;;;25.71;31.59;99140.97;5075307;28;20096;-63
2023/07/10 09:34:53;;;;;;;4.88;2.60;;;;;;;25.96;32.43;99156.31;5073723;28;20150;-60
2023/07/10 09:37:22;;;;;;;5.37;2.90;;;;;;;26.18;31.67;99151.88;5074461;28;20360;-60
2023/07/10 09:39:48;;;;;;;5.15;3.45;;;;;;;26.13;31.77;99149.00;5074477;28;20027;-62
2023/07/10 09:42:21;;;;;;;3.80;2.90;;;;;;;26.15;31.31;99152.34;5078152;28;20020;-60
2023/07/10 09:44:53;;;;;;;4.90;3.25;;;;;;;26.04;31.79;99150.44;5074084;28;20032;-63
2023/07/10 09:47:20;;;;;;;5.70;3.28;;;;;;;26.08;31.60;99143.41;5053780;28;20040;-59
2023/07/10 09:49:55;;;;;;;7.70;3.20;;;;;;;26.03;31.92;99151.53;5070262;28;20029;-65
2023/07/10 09:52:27;;;;;;;7.15;2.70;;;;;;;25.80;32.13;99151.34;5075363;28;20046;-57
2023/07/10 09:55:15;;;;;;;4.15;2.78;;;;;;;26.00;31.67;99154.75;5073055;28;20032;-62
2023/07/10 09:57:55;;;;;;;3.83;3.10;;;;;;;26.06;31.90;99145.56;5065596;28;20035;-61
2023/07/10 10:00:21;;;;;;;6.25;3.35;;;;;;;26.13;31.86;99142.66;5082472;28;20028;-56
2023/07/10 10:03:09;;;;;;;7.25;3.28;;;;;;;26.53;30.84;99149.25;5057638;28;20048;-57
2023/07/10 10:05:40;;;;;;;7.25;3.00;;;;;;;26.49;31.50;99151.66;5059440;28;20040;-61
2023/07/10 10:08:21;;;;;;;4.75;3.15;;;;;;;26.60;31.24;99130.72;5067216;28;20086;-59
2023/07/10 10:11:06;;;;;;;5.50;3.30;;;;;;;26.23;31.18;99116.31;5073564;28;20472;-61
2023/07/10 10:13:39;;;;;;;4.00;3.08;;;;;;;26.10;31.63;99157.72;5076370;28;20028;-60
2023/07/10 10:16:12;;;;;;;3.10;2.80;;;;;;;25.91;32.09;99154.28;5087346;28;20025;-57
2023/07/10 10:18:46;;;;;;;5.05;3.28;;;;;;;25.78;32.40;99152.66;5072064;28;20028;-60
2023/07/10 10:21:15;;;;;;;3.63;3.22;;;;;;;25.62;32.77;99159.69;5073948;28;20032;-62
2023/07/10 10:23:45;;;;;;;6.95;3.53;;;;;;;24.85;33.77;99128.56;5072459;28;20314;-62
2023/07/10 10:26:29;;;;;;;6.55;3.50;;;;;;;24.70;35.20;99170.84;5081165;28;20024;-61
2023/07/10 10:29:14;;;;;;;6.80;3.78;;;;;;;24.58;34.34;99172.69;5094192;28;20127;-65
2023/07/10 10:31:46;;;;;;;4.82;3.92;;;;;;;24.34;34.90;99150.72;5081073;28;20491;-62
2023/07/10 10:34:26;;;;;;;5.43;3.58;;;;;;;24.46;35.36;99175.38;5073815;28;20510;-61
2023/07/10 10:37:18;;;;;;;8.15;4.00;;;;;;;24.11;35.96;99189.72;5072640;28;20032;-57
2023/07/10 10:39:53;;;;;;;8.38;3.75;;;;;;;23.69;36.86;99193.94;5072366;28;20068;-61
2023/07/10 10:42:29;;;;;;;8.38;5.97;;;;;;;23.51;37.84;99181.94;5072891;28;20128;-61
2023/07/10 10:45:12;;;;;;;6.20;4.55;;;;;;;23.70;36.93;99173.75;5074287;28;20081;-64
2023/07/10 10:48:22;;;;;;;5.82;5.22;;;;;;;23.97;36.63;99195.31;5070711;28;20036;-60
2023/07/10 10:50:50;;;;;;;9.70;7.07;;;;;;;23.87;37.15;99198.59;5058690;28;20087;-60
2023/07/10 10:53:37;;;;;;;8.13;5.95;;;;;;;23.72;37.10;99195.38;5072967;28;20032;-65
2023/07/10 10:56:24;;;;;;;6.60;5.32;;;;;;;23.55;37.79;99203.34;5073072;28;20090;-61
2023/07/10 10:59:23;;;;;;;6.53;5.13;;;;;;;23.35;38.07;99204.34;5073677;28;20085;-59
2023/07/10 11:02:03;;;;;;;5.25;4.68;;;;;;;23.49;37.91;99194.97;5068313;28;20452;-62
2023/07/10 11:04:31;;;;;;;7.65;4.72;;;;;;;23.73;37.98;99210.72;5076352;28;20463;-57
2023/07/10 11:07:01;;;;;;;5.43;4.10;;;;;;;23.85;37.46;99206.16;5080182;28;20153;-59
2023/07/10 11:09:35;;;;;;;5.70;4.13;;;;;;;23.93;37.29;99194.09;5091525;28;20468;-60
2023/07/10 11:12:03;;;;;;;4.07;3.78;;;;;;;24.10;37.04;99196.28;5072877;28;20117;-60
2023/07/10 11:14:28;;;;;;;5.25;4.10;;;;;;;24.02;37.47;99202.88;5072364;28;20051;-59
2023/07/10 11:16:55;;;;;;;7.70;4.25;;;;;;;23.79;37.60;99205.19;5062521;28;20455;-59
2023/07/10 11:19:27;;;;;;;13.63;4.40;;;;;;;23.53;38.16;99200.00;5052460;28;20043;-62
2023/07/10 11:21:53;;;;;;;5.53;4.35;;;;;;;23.27;38.92;99190.94;5067185;28;20040;-60
2023/07/10 11:24:32;;;;;;;6.40;4.03;;;;;;;23.44;38.81;99196.72;5089921;28;20024;-57
2023/07/10 11:27:05;;;;;;;5.10;4.40;;;;;;;23.37;39.09;99200.31;5092962;28;20051;-57
2023/07/10 11:29:36;;;;;;;8.82;4.10;;;;;;;23.42;38.96;99205.13;5092886;28;20032;-58
2023/07/10 11:32:14;;;;;;;5.53;4.78;;;;;;;23.65;38.85;99215.44;5083416;28;20029;-59
2023/07/10 11:35:08;;;;;;;10.75;4.50;;;;;;;23.86;38.08;99210.56;5061877;28;20033;-65
2023/07/10 11:37:48;;;;;;;6.55;4.40;;;;;;;23.89;38.27;99218.34;5051539;28;20432;-63
2023/07/10 11:40:23;;;;;;;4.30;3.90;;;;;;;23.81;37.87;99229.56;5091835;28;20039;-56
2023/07/10 11:42:49;;;;;;;6.53;4.30;;;;;;;23.72;38.45;99223.53;5082778;28;20070;-57
2023/07/10 11:45:15;;;;;;;4.53;3.78;;;;;;;23.49;38.38;99177.75;5071589;28;20281;-59